Home > Products > Valid Products > TAF

000
FTUS46 KSGX 281123
TAFSAN
TAF
KSAN 281123Z 2812/2918 VRB04KT P6SM OVC015
     FM281900 29009KT P6SM SCT018
     FM290300 VRB04KT P6SM OVC009
     FM291700 28005KT P6SM SCT012=



000
FTUS46 KSGX 281123
TAFSAN
TAF
KSAN 281123Z 2812/2918 VRB04KT P6SM OVC015
     FM281900 29009KT P6SM SCT018
     FM290300 VRB04KT P6SM OVC009
     FM291700 28005KT P6SM SCT012=



000
FTUS46 KSGX 281123
TAFPSP
TAF
KPSP 281123Z 2812/2912 VRB05KT P6SM SKC
     FM281900 11007KT P6SM SKC
     FM290100 33011KT P6SM SKC
     FM290700 VRB05KT P6SM SKC=



000
FTUS46 KSGX 281123
TAFTRM
TAF
KTRM 281123Z 2812/2912 VRB05KT P6SM SKC
     FM281900 14010KT P6SM SKC
     FM290330 33008KT P6SM SKC=



000
FTUS46 KSGX 281123
TAFPSP
TAF
KPSP 281123Z 2812/2912 VRB05KT P6SM SKC
     FM281900 11007KT P6SM SKC
     FM290100 33011KT P6SM SKC
     FM290700 VRB05KT P6SM SKC=



000
FTUS46 KSGX 281123
TAFCRQ
TAF
KCRQ 281123Z 2812/2912 VRB04KT P6SM OVC010
     FM281900 26008KT P6SM SCT015
     FM290200 VRB04KT P6SM BKN010
     FM290600 VRB03KT 5SM BR OVC006=



000
FTUS46 KSGX 281123
TAFONT
TAF
KONT 281123Z 2812/2918 VRB04KT 5SM BR SCT010
     FM281300 VRB04KT 5SM BR BKN009
     FM281600 VRB03KT 6SM HZ SCT012
     FM282100 26011KT P6SM SKC
     FM290400 25005KT P6SM SKC
     FM291200 VRB04KT 5SM BR SCT005
     FM291500 VRB04KT P6SM SKC=



000
FTUS46 KSGX 281123
TAFSNA
TAF
KSNA 281123Z 2812/2912 VRB04KT P6SM OVC015
     FM281900 22008KT P6SM SKC
     FM290300 VRB04KT P6SM SCT012
     FM290700 VRB03KT P6SM OVC008=



000
FTUS46 KSGX 281123
TAFCRQ
TAF
KCRQ 281123Z 2812/2912 VRB04KT P6SM OVC010
     FM281900 26008KT P6SM SCT015
     FM290200 VRB04KT P6SM BKN010
     FM290600 VRB03KT 5SM BR OVC006=



000
FTUS46 KSGX 281123
TAFSNA
TAF
KSNA 281123Z 2812/2912 VRB04KT P6SM OVC015
     FM281900 22008KT P6SM SKC
     FM290300 VRB04KT P6SM SCT012
     FM290700 VRB03KT P6SM OVC008=



000
FTUS46 KSGX 281123
TAFONT
TAF
KONT 281123Z 2812/2918 VRB04KT 5SM BR SCT010
     FM281300 VRB04KT 5SM BR BKN009
     FM281600 VRB03KT 6SM HZ SCT012
     FM282100 26011KT P6SM SKC
     FM290400 25005KT P6SM SKC
     FM291200 VRB04KT 5SM BR SCT005
     FM291500 VRB04KT P6SM SKC=



000
FTUS46 KSGX 281123
TAFTRM
TAF
KTRM 281123Z 2812/2912 VRB05KT P6SM SKC
     FM281900 14010KT P6SM SKC
     FM290330 33008KT P6SM SKC=



000
FTUS46 KSGX 280908 AAA
TAFSAN
TAF AMD
KSAN 280908Z 2809/2912 VRB05KT P6SM OVC015
     FM281800 29010KT P6SM FEW020
     FM290200 VRB04KT P6SM OVC012=



000
FTUS46 KSGX 280802 AAA
TAFONT
TAF AMD
KONT 280802Z 2808/2912 25006KT P6SM SCT010
     FM281200 VRB04KT 5SM BR OVC009
     FM281500 VRB03KT 4SM HZ BKN012
     FM281800 VRB04KT 6SM HZ SCT015
     FM282100 26011KT P6SM SKC
     FM290400 25006KT P6SM FEW010
     FM290800 VRB04KT 4SM BR SCT005=



000
FTUS46 KSGX 280743 AAA
TAFSNA
TAF AMD
KSNA 280743Z 2808/2906 VRB04KT P6SM SCT012
     FM280900 VRB04KT P6SM OVC012
     FM281900 22008KT P6SM FEW020
     FM290200 VRB04KT P6SM SCT015
     FM290500 VRB03KT P6SM BKN010=



000
FTUS46 KSGX 280537
TAFSAN
TAF
KSAN 280537Z 2806/2912 VRB03KT P6SM OVC015
     FM282000 29010KT P6SM FEW020
     FM290200 VRB04KT P6SM OVC012=



000
FTUS46 KSGX 280537
TAFSNA
TAF
KSNA 280537Z 2806/2906 VRB04KT P6SM OVC012
     FM281900 22008KT P6SM FEW020
     FM290200 VRB04KT P6SM SCT015
     FM290500 VRB03KT P6SM BKN010=



000
FTUS46 KSGX 280537
TAFPSP
TAF
KPSP 280537Z 2806/2906 33011KT P6SM SKC
     FM280700 VRB05KT P6SM SKC
     FM290100 33010KT P6SM SKC=



000
FTUS46 KSGX 280537
TAFONT
TAF
KONT 280537Z 2806/2912 25006KT P6SM SCT010
     FM280800 VRB04KT 5SM BR OVC009
     FM281500 VRB03KT 4SM HZ BKN012
     FM281800 VRB04KT 6SM HZ SCT015
     FM282100 26011KT P6SM SKC
     FM290400 25006KT P6SM FEW010
     FM290800 VRB04KT 4SM BR SCT005=



000
FTUS46 KSGX 280537
TAFTRM
TAF
KTRM 280537Z 2806/2906 34009KT P6SM SKC
     FM281000 VRB05KT P6SM SKC
     FM281900 14010KT P6SM SKC
     FM290000 VRB06KT P6SM SKC=



000
FTUS46 KSGX 280537
TAFCRQ
TAF
KCRQ 280537Z 2806/2906 VRB04KT P6SM BKN012
     FM281200 VRB03KT 5SM BR OVC008
     FM281600 VRB03KT 6SM HZ BKN010
     FM282000 25009KT P6SM FEW015
     FM290100 VRB03KT P6SM BKN010=



000
FTUS46 KSGX 280255 AAA
TAFSAN
TAF AMD
KSAN 280255Z 2803/2906 29005KT P6SM SCT022
     FM280400 VRB04KT P6SM BKN020
     FM280600 VRB03KT P6SM OVC015
     FM282000 29010KT P6SM FEW020
     FM290200 VRB04KT P6SM BKN012=



000
FTUS46 KSGX 280255 AAA
TAFSAN
TAF AMD
KSAN 280255Z 2803/2906 29005KT P6SM SCT022
     FM280400 VRB04KT P6SM BKN020
     FM280600 VRB03KT P6SM OVC015
     FM282000 29010KT P6SM FEW020
     FM290200 VRB04KT P6SM BKN012=



000
FTUS46 KSGX 272330
TAFTRM
TAF
KTRM 272330Z 2800/2824 14008KT P6SM SKC
     FM280400 34009KT P6SM SKC
     FM281000 VRB05KT P6SM SKC
     FM281900 14010KT P6SM SKC=



000
FTUS46 KSGX 272330
TAFONT
TAF
KONT 272330Z 2800/2906 26011KT P6SM SKC
     FM280400 25006KT P6SM SCT010
     FM280800 VRB04KT 5SM BR OVC009
     FM281500 VRB03KT 4SM HZ BKN012
     FM281800 VRB04KT 6SM HZ SCT015
     FM282100 26011KT P6SM SKC
     FM290400 25006KT P6SM FEW010=



000
FTUS46 KSGX 272330
TAFSAN
TAF
KSAN 272330Z 2800/2906 29009KT P6SM SCT022
     FM280200 VRB04KT P6SM BKN020
     FM280600 VRB03KT P6SM OVC015
     FM282000 29010KT P6SM FEW020
     FM290200 VRB04KT P6SM BKN012=



000
FTUS46 KSGX 272330
TAFPSP
TAF
KPSP 272330Z 2800/2824 VRB06KT P6SM FEW120
     FM280100 33011KT P6SM SKC
     FM280700 VRB05KT P6SM SKC=



000
FTUS46 KSGX 272330
TAFSNA
TAF
KSNA 272330Z 2800/2824 22007KT P6SM FEW030
     FM280500 VRB04KT P6SM OVC012
     FM281900 22008KT P6SM FEW020=



000
FTUS46 KSGX 272330
TAFCRQ
TAF
KCRQ 272330Z 2800/2824 25007KT P6SM BKN018
     FM280600 VRB04KT P6SM BKN012
     FM281200 VRB03KT 5SM BR OVC008
     FM281600 VRB03KT 6SM HZ BKN010
     FM282000 25009KT P6SM FEW015=



000
FTUS46 KSGX 272101 AAA
TAFSAN
TAF AMD
KSAN 272101Z 2721/2824 29010KT P6SM BKN025
      TEMPO 2721/2801 SCT025
     FM280300 VRB04KT P6SM OVC015
     FM282000 29010KT P6SM SCT015=



000
FTUS46 KSGX 271737
TAFCRQ
TAF
KCRQ 271737Z 2718/2818 VRB04KT P6SM OVC015
     FM272000 25009KT P6SM BKN022
      TEMPO 2721/2801 SCT025
     FM280200 VRB04KT P6SM BKN012
     FM280900 VRB03KT 5SM BR OVC008=



000
FTUS46 KSGX 271737
TAFSAN
TAF
KSAN 271737Z 2718/2824 29005KT P6SM BKN025
     FM272000 29010KT P6SM BKN025
      TEMPO 2721/2801 SCT025
     FM280300 VRB04KT P6SM OVC015
     FM282000 29010KT P6SM SCT015=



000
FTUS46 KSGX 271737
TAFPSP
TAF
KPSP 271737Z 2718/2818 VRB05KT P6SM SCT200
     FM271900 10008KT P6SM SKC
     FM280000 33013KT P6SM SKC
     FM280700 VRB05KT P6SM SKC=



000
FTUS46 KSGX 271737
TAFONT
TAF
KONT 271737Z 2718/2824 23005KT P6SM SCT025
     FM272100 26012KT P6SM SKC
     FM280400 25006KT P6SM SCT010
     FM280800 VRB04KT 5SM BR OVC009
     FM281500 VRB03KT 6SM HZ BKN012
     FM281930 VRB04KT P6SM SCT015
     FM282100 26012KT P6SM SKC=



000
FTUS46 KSGX 271737
TAFTRM
TAF
KTRM 271737Z 2718/2818 VRB06KT P6SM SCT200
     FM271900 14008KT P6SM SKC
     FM280300 34009KT P6SM SKC=



000
FTUS46 KSGX 271737
TAFSNA
TAF
KSNA 271737Z 2718/2818 VRB04KT P6SM OVC022
     FM272000 22009KT P6SM SCT025
     FM280200 22005KT P6SM SCT015 SCT025
     FM280500 VRB04KT P6SM OVC012=



000
FTUS46 KSGX 271442 AAA
TAFSAN
TAF AMD
KSAN 271442Z 2715/2818 VRB05KT P6SM OVC025
     FM271600 29005KT P6SM BKN025
     FM272000 29010KT P6SM BKN025
      TEMPO 2721/2801 SCT025
     FM280300 VRB04KT P6SM OVC012=



000
FTUS46 KSGX 271125
TAFONT
TAF
KONT 271125Z 2712/2818 VRB05KT 6SM BR OVC012
     FM271630 VRB04KT 6SM HZ BKN020
     FM271800 23005KT P6SM SCT025
     FM272100 26012KT P6SM SKC
     FM280400 25006KT P6SM SCT010
     FM280800 VRB04KT 5SM BR OVC009
     FM281500 VRB03KT 6SM HZ BKN012
     FM281700 VRB04KT P6SM SCT015=



000
FTUS46 KSGX 271125
TAFSAN
TAF
KSAN 271125Z 2712/2818 VRB05KT P6SM BKN018 OVC025
     FM271600 29005KT P6SM BKN025
     FM272000 29010KT P6SM BKN025
      TEMPO 2721/2801 SCT025
     FM280300 VRB04KT P6SM OVC012=



000
FTUS46 KSGX 271125
TAFPSP
TAF
KPSP 271125Z 2712/2812 VRB05KT P6SM SCT200
     FM271900 10008KT P6SM SKC
     FM280000 33013KT P6SM SKC
     FM280700 VRB05KT P6SM SKC=



000
FTUS46 KSGX 271125
TAFSNA
TAF
KSNA 271125Z 2712/2812 VRB03KT P6SM OVC018
     FM271600 VRB04KT P6SM OVC022
     FM272000 22009KT P6SM SCT025
     FM280200 22005KT P6SM SCT015 SCT025
     FM280500 VRB04KT P6SM OVC012=



000
FTUS46 KSGX 271125
TAFTRM
TAF
KTRM 271125Z 2712/2812 VRB06KT P6SM SCT200
     FM271900 14010KT P6SM SKC
     FM280300 33010KT P6SM SKC=



000
FTUS46 KSGX 271125
TAFCRQ
TAF
KCRQ 271125Z 2712/2812 VRB03KT 5SM BR OVC010
     FM271500 VRB04KT P6SM OVC015
     FM272000 25009KT P6SM BKN022
      TEMPO 2721/2801 SCT025
     FM280200 VRB04KT P6SM BKN012
     FM280900 VRB03KT 5SM BR OVC008=



000
FTUS46 KSGX 271125
TAFONT
TAF
KONT 271125Z 2712/2818 VRB05KT 6SM BR OVC012
     FM271630 VRB04KT 6SM HZ BKN020
     FM271800 23005KT P6SM SCT025
     FM272100 26012KT P6SM SKC
     FM280400 25006KT P6SM SCT010
     FM280800 VRB04KT 5SM BR OVC009
     FM281500 VRB03KT 6SM HZ BKN012
     FM281700 VRB04KT P6SM SCT015=



000
FTUS46 KSGX 271125
TAFSAN
TAF
KSAN 271125Z 2712/2818 VRB05KT P6SM BKN018 OVC025
     FM271600 29005KT P6SM BKN025
     FM272000 29010KT P6SM BKN025
      TEMPO 2721/2801 SCT025
     FM280300 VRB04KT P6SM OVC012=



000
FTUS46 KSGX 271125
TAFCRQ
TAF
KCRQ 271125Z 2712/2812 VRB03KT 5SM BR OVC010
     FM271500 VRB04KT P6SM OVC015
     FM272000 25009KT P6SM BKN022
      TEMPO 2721/2801 SCT025
     FM280200 VRB04KT P6SM BKN012
     FM280900 VRB03KT 5SM BR OVC008=



000
FTUS46 KSGX 271125
TAFTRM
TAF
KTRM 271125Z 2712/2812 VRB06KT P6SM SCT200
     FM271900 14010KT P6SM SKC
     FM280300 33010KT P6SM SKC=



000
FTUS46 KSGX 271125
TAFSNA
TAF
KSNA 271125Z 2712/2812 VRB03KT P6SM OVC018
     FM271600 VRB04KT P6SM OVC022
     FM272000 22009KT P6SM SCT025
     FM280200 22005KT P6SM SCT015 SCT025
     FM280500 VRB04KT P6SM OVC012=



000
FTUS46 KSGX 271125
TAFPSP
TAF
KPSP 271125Z 2712/2812 VRB05KT P6SM SCT200
     FM271900 10008KT P6SM SKC
     FM280000 33013KT P6SM SKC
     FM280700 VRB05KT P6SM SKC=



000
FTUS46 KSGX 270907 AAA
TAFONT
TAF AMD
KONT 270907Z 2709/2812 VRB04KT 5SM BR OVC013
     FM271700 25006KT P6SM SCT017 SCT200
     FM272100 26011KT P6SM SCT200
     FM280400 VRB04KT P6SM FEW010 FEW200
     FM280800 VRB04KT 5SM BR BKN008=



000
FTUS46 KSGX 270907 AAA
TAFONT
TAF AMD
KONT 270907Z 2709/2812 VRB04KT 5SM BR OVC013
     FM271700 25006KT P6SM SCT017 SCT200
     FM272100 26011KT P6SM SCT200
     FM280400 VRB04KT P6SM FEW010 FEW200
     FM280800 VRB04KT 5SM BR BKN008=



000
FTUS46 KSGX 270906 AAA
TAFSAN
TAF AMD
KSAN 270906Z 2709/2812 VRB04KT P6SM OVC017
     FM271700 29007KT P6SM BKN025
     FM272200 29010KT P6SM SCT020
     FM280300 VRB04KT P6SM BKN014=



000
FTUS46 KSGX 270906 AAA
TAFSAN
TAF AMD
KSAN 270906Z 2709/2812 VRB04KT P6SM OVC017
     FM271700 29007KT P6SM BKN025
     FM272200 29010KT P6SM SCT020
     FM280300 VRB04KT P6SM BKN014=



000
FTUS46 KSGX 270520
TAFSAN
TAF
KSAN 270520Z 2706/2812 VRB04KT P6SM OVC017
     FM271900 29009KT P6SM BKN017
     FM272200 29010KT P6SM SCT020 SCT200
     FM280300 VRB04KT P6SM BKN014=



000
FTUS46 KSGX 270520
TAFONT
TAF
KONT 270520Z 2706/2812 VRB05KT P6SM BKN014
     FM271400 VRB04KT 5SM BR OVC010
     FM271800 25006KT P6SM SCT017 SCT200
     FM272100 26011KT P6SM SCT200
     FM280400 VRB04KT P6SM FEW010 FEW200
     FM280800 VRB04KT 5SM BR BKN008=



000
FTUS46 KSGX 270520
TAFTRM
TAF
KTRM 270520Z 2706/2806 33009KT P6SM SCT200
     FM271100 VRB06KT P6SM SCT200
     FM271900 14009KT P6SM SCT200
     FM280300 33010KT P6SM FEW200=



000
FTUS46 KSGX 270520
TAFSNA
TAF
KSNA 270520Z 2706/2806 VRB04KT P6SM OVC017
      TEMPO 2706/2709 OVC021
     FM271800 22007KT P6SM BKN017
     FM272000 23009KT P6SM SCT020 SCT200
     FM280200 VRB06KT P6SM SCT015
     FM280400 VRB04KT P6SM BKN014=



000
FTUS46 KSGX 270520
TAFPSP
TAF
KPSP 270520Z 2706/2806 33012KT P6SM SCT200
     FM270700 VRB06KT P6SM SCT200
     FM272000 10008KT P6SM SCT200
     FM272300 33013KT P6SM FEW200=



000
FTUS46 KSGX 270520
TAFCRQ
TAF
KCRQ 270520Z 2706/2806 VRB04KT P6SM OVC013
     FM271800 25007KT P6SM BKN015
     FM272100 24009KT P6SM SCT017 SCT200
     FM280200 VRB04KT P6SM BKN011=



000
FTUS46 KSGX 270406 AAA
TAFSAN
TAF AMD
KSAN 270406Z 2704/2806 29007KT P6SM OVC018
     FM270500 VRB05KT P6SM OVC015
     FM271900 29009KT P6SM BKN017
     FM272200 29009KT P6SM SCT020 SCT200
     FM280200 VRB05KT P6SM BKN015=



000
FTUS46 KSGX 262337
TAFSAN
TAF
KSAN 262337Z 2700/2806 29009KT P6SM BKN022
     FM270200 VRB05KT P6SM OVC015
     FM271900 29009KT P6SM BKN017
     FM272200 29009KT P6SM SCT020
     FM280200 VRB05KT P6SM BKN015 BKN150=



000
FTUS46 KSGX 262337
TAFCRQ
TAF
KCRQ 262337Z 2700/2724 26008KT P6SM BKN017
      TEMPO 2700/2702 SCT019
     FM270200 VRB04KT P6SM OVC012
      TEMPO 2711/2714 OVC008
     FM271900 25007KT P6SM BKN014
     FM272200 24008KT P6SM SCT017 BKN150=



000
FTUS46 KSGX 262337
TAFONT
TAF
KONT 262337Z 2700/2806 26012KT P6SM FEW025 BKN200
     FM270400 VRB05KT P6SM SCT015
     FM270800 VRB05KT P6SM OVC014
     FM271400 VRB04KT 4SM BR OVC010
     FM271800 25006KT P6SM SCT017 BKN150
     FM272100 26012KT P6SM BKN150
     FM280400 VRB04KT P6SM FEW010 BKN150=



000
FTUS46 KSGX 262337
TAFPSP
TAF
KPSP 262337Z 2700/2724 33012KT P6SM SCT200
     FM270700 VRB06KT P6SM SCT200=



000
FTUS46 KSGX 262337
TAFTRM
TAF
KTRM 262337Z 2700/2724 14007KT P6SM SCT200
     FM270330 33009KT P6SM SCT200
     FM271000 VRB06KT P6SM SCT200
     FM272000 14009KT P6SM SCT200=



000
FTUS46 KSGX 262337
TAFCRQ
TAF
KCRQ 262337Z 2700/2724 26008KT P6SM BKN017
      TEMPO 2700/2702 SCT019
     FM270200 VRB04KT P6SM OVC012
      TEMPO 2711/2714 OVC008
     FM271900 25007KT P6SM BKN014
     FM272200 24008KT P6SM SCT017 BKN150=



000
FTUS46 KSGX 262337
TAFONT
TAF
KONT 262337Z 2700/2806 26012KT P6SM FEW025 BKN200
     FM270400 VRB05KT P6SM SCT015
     FM270800 VRB05KT P6SM OVC014
     FM271400 VRB04KT 4SM BR OVC010
     FM271800 25006KT P6SM SCT017 BKN150
     FM272100 26012KT P6SM BKN150
     FM280400 VRB04KT P6SM FEW010 BKN150=



000
FTUS46 KSGX 262337
TAFSNA
TAF
KSNA 262337Z 2700/2724 21007KT P6SM FEW020
     FM270300 VRB04KT P6SM BKN020
     FM270600 VRB03KT P6SM OVC015
     FM271900 22008KT P6SM BKN017
     FM272100 23008KT P6SM SCT020 BKN150=



000
FTUS46 KSGX 262337
TAFTRM
TAF
KTRM 262337Z 2700/2724 14007KT P6SM SCT200
     FM270330 33009KT P6SM SCT200
     FM271000 VRB06KT P6SM SCT200
     FM272000 14009KT P6SM SCT200=



000
FTUS46 KSGX 262337
TAFPSP
TAF
KPSP 262337Z 2700/2724 33012KT P6SM SCT200
     FM270700 VRB06KT P6SM SCT200=



000
FTUS46 KSGX 262337
TAFSNA
TAF
KSNA 262337Z 2700/2724 21007KT P6SM FEW020
     FM270300 VRB04KT P6SM BKN020
     FM270600 VRB03KT P6SM OVC015
     FM271900 22008KT P6SM BKN017
     FM272100 23008KT P6SM SCT020 BKN150=



000
FTUS46 KSGX 262141 AAA
TAFSNA
TAF AMD
KSNA 262141Z 2622/2718 21009KT P6SM FEW020
     FM270200 VRB04KT P6SM BKN022
     FM270600 VRB03KT P6SM OVC015=



000
FTUS46 KSGX 262141 AAA
TAFSNA
TAF AMD
KSNA 262141Z 2622/2718 21009KT P6SM FEW020
     FM270200 VRB04KT P6SM BKN022
     FM270600 VRB03KT P6SM OVC015=



000
FTUS46 KSGX 262009 AAB
TAFSAN
TAF AMD
KSAN 262009Z 2620/2724 29009KT P6SM BKN015
     FM262300 29009KT P6SM BKN020
     FM270200 VRB05KT P6SM OVC015
     FM272000 29009KT P6SM BKN017=



000
FTUS46 KSGX 261859 AAA
TAFSAN
TAF AMD
KSAN 261859Z 2619/2724 29008KT P6SM BKN017 OVC020
     FM262000 29009KT P6SM BKN020
     FM270200 VRB05KT P6SM OVC015
     FM272000 29009KT P6SM BKN017=



000
FTUS46 KSGX 261720
TAFONT
TAF
KONT 261720Z 2618/2724 VRB04KT 4SM BR SCT008 OVC015
     FM261900 25006KT 5SM HZ FEW015 BKN022
     FM262000 26012KT P6SM FEW025 SCT200
     FM270600 VRB05KT P6SM OVC015
     FM271400 VRB04KT 4SM -DZ BR OVC012
     FM272000 25010KT P6SM FEW025 SCT200=



000
FTUS46 KSGX 261720
TAFSNA
TAF
KSNA 261720Z 2618/2718 VRB05KT P6SM OVC022
     FM262000 21009KT P6SM BKN028
     FM270200 VRB04KT P6SM BKN022
     FM270600 VRB03KT P6SM OVC015=



000
FTUS46 KSGX 261720
TAFPSP
TAF
KPSP 261720Z 2618/2718 VRB06KT P6SM SCT200
     FM270000 33012KT P6SM SCT200
     FM270700 VRB05KT P6SM SCT200=



000
FTUS46 KSGX 261720
TAFTRM
TAF
KTRM 261720Z 2618/2718 VRB06KT P6SM SCT200
     FM261900 14010KT P6SM SCT200
     FM270200 33009KT P6SM SCT200
     FM270600 33006KT P6SM SCT200=



000
FTUS46 KSGX 261720
TAFCRQ
TAF
KCRQ 261720Z 2618/2718 25005KT P6SM OVC014
     FM262000 26008KT P6SM BKN017
     FM270100 VRB04KT P6SM OVC012
      TEMPO 2713/2715 BKN008=



000
FTUS46 KSGX 261720
TAFSAN
TAF
KSAN 261720Z 2618/2724 29006KT P6SM BKN014 OVC020
     FM262000 29009KT P6SM BKN020
     FM270200 VRB05KT P6SM OVC015
     FM272000 29009KT P6SM BKN017=



000
FTUS46 KSGX 261720
TAFTRM
TAF
KTRM 261720Z 2618/2718 VRB06KT P6SM SCT200
     FM261900 14010KT P6SM SCT200
     FM270200 33009KT P6SM SCT200
     FM270600 33006KT P6SM SCT200=



000
FTUS46 KSGX 261720
TAFONT
TAF
KONT 261720Z 2618/2724 VRB04KT 4SM BR SCT008 OVC015
     FM261900 25006KT 5SM HZ FEW015 BKN022
     FM262000 26012KT P6SM FEW025 SCT200
     FM270600 VRB05KT P6SM OVC015
     FM271400 VRB04KT 4SM -DZ BR OVC012
     FM272000 25010KT P6SM FEW025 SCT200=



000
FTUS46 KSGX 261720
TAFPSP
TAF
KPSP 261720Z 2618/2718 VRB06KT P6SM SCT200
     FM270000 33012KT P6SM SCT200
     FM270700 VRB05KT P6SM SCT200=



000
FTUS46 KSGX 261720
TAFCRQ
TAF
KCRQ 261720Z 2618/2718 25005KT P6SM OVC014
     FM262000 26008KT P6SM BKN017
     FM270100 VRB04KT P6SM OVC012
      TEMPO 2713/2715 BKN008=



000
FTUS46 KSGX 261720
TAFSNA
TAF
KSNA 261720Z 2618/2718 VRB05KT P6SM OVC022
     FM262000 21009KT P6SM BKN028
     FM270200 VRB04KT P6SM BKN022
     FM270600 VRB03KT P6SM OVC015=



000
FTUS46 KSGX 261720
TAFSAN
TAF
KSAN 261720Z 2618/2724 29006KT P6SM BKN014 OVC020
     FM262000 29009KT P6SM BKN020
     FM270200 VRB05KT P6SM OVC015
     FM272000 29009KT P6SM BKN017=



000
FTUS46 KSGX 261452 AAA
TAFCRQ
TAF AMD
KCRQ 261452Z 2615/2712 VRB04KT 6SM BR FEW008 OVC012
      TEMPO 2615/2618 4SM -DZ BR BKN008
     FM261800 25008KT P6SM BKN017
     FM270100 VRB04KT P6SM OVC015=



000
FTUS46 KSGX 261439 AAA
TAFONT
TAF AMD
KONT 261439Z 2615/2718 VRB03KT 3SM -DZ OVC015
     FM261800 VRB04KT 5SM BR BKN022
     FM262000 26012KT P6SM SCT200
     FM270400 25006KT P6SM SCT015
     FM270800 VRB05KT P6SM OVC012
     FM271300 VRB04KT 5SM BR OVC010
     FM271600 VRB04KT 6SM HZ SCT012=



000
FTUS46 KSGX 261439 AAA
TAFONT
TAF AMD
KONT 261439Z 2615/2718 VRB03KT 3SM -DZ OVC015
     FM261800 VRB04KT 5SM BR BKN022
     FM262000 26012KT P6SM SCT200
     FM270400 25006KT P6SM SCT015
     FM270800 VRB05KT P6SM OVC012
     FM271300 VRB04KT 5SM BR OVC010
     FM271600 VRB04KT 6SM HZ SCT012=



000
FTUS46 KSGX 261434 AAA
TAFSNA
TAF AMD
KSNA 261434Z 2615/2712 VRB05KT P6SM OVC022
     FM262100 21009KT P6SM BKN025
     FM270200 VRB04KT P6SM BKN018
     FM270600 VRB03KT P6SM OVC015=



000
FTUS46 KSGX 261434 AAA
TAFSNA
TAF AMD
KSNA 261434Z 2615/2712 VRB05KT P6SM OVC022
     FM262100 21009KT P6SM BKN025
     FM270200 VRB04KT P6SM BKN018
     FM270600 VRB03KT P6SM OVC015=



000
FTUS46 KSGX 261428 AAA
TAFSAN
TAF AMD
KSAN 261428Z 2614/2718 VRB05KT P6SM OVC017
     FM261800 28009KT P6SM BKN020
     FM270200 VRB05KT P6SM OVC018=



000
FTUS46 KSGX 261121
TAFSNA
TAF
KSNA 261121Z 2612/2712 VRB05KT P6SM OVC015
     FM261700 21006KT P6SM BKN022
     FM262100 21009KT P6SM SCT025
     FM270200 VRB04KT P6SM SCT018
     FM270600 VRB03KT P6SM OVC015=



000
FTUS46 KSGX 261121
TAFSAN
TAF
KSAN 261121Z 2612/2718 VRB04KT P6SM OVC018
     FM261700 28009KT P6SM BKN025
      TEMPO 2621/2701 SCT025
     FM270300 VRB05KT P6SM OVC018=



000
FTUS46 KSGX 261121
TAFPSP
TAF
KPSP 261121Z 2612/2712 VRB06KT P6SM SCT200
     FM262300 33012KT P6SM SCT200
     FM270700 VRB05KT P6SM SCT200=



000
FTUS46 KSGX 261121
TAFTRM
TAF
KTRM 261121Z 2612/2712 VRB05KT P6SM SCT200
     FM261800 14010KT P6SM SCT200
     FM270300 33010KT P6SM SCT200=



000
FTUS46 KSGX 261121
TAFCRQ
TAF
KCRQ 261121Z 2612/2712 VRB04KT P6SM OVC012
     FM261700 25008KT P6SM BKN020
      TEMPO 2621/2701 SCT020
     FM270300 VRB04KT P6SM OVC015=



000
FTUS46 KSGX 261121
TAFONT
TAF
KONT 261121Z 2612/2718 VRB03KT P6SM OVC015
     FM261700 VRB04KT P6SM BKN022
     FM262000 26012KT P6SM SCT200
     FM270400 25006KT P6SM SCT015
     FM270800 VRB05KT P6SM OVC012
     FM271300 VRB04KT 5SM BR OVC010
     FM271600 VRB04KT 6SM HZ SCT012=



000
FTUS46 KSGX 260903 AAA
TAFONT
TAF AMD
KONT 260903Z 2609/2712 VRB04KT P6SM OVC015
     FM261100 VRB04KT 5SM BR OVC012
     FM261700 VRB06KT P6SM BKN018
     FM262000 25011KT P6SM FEW020
     FM270400 VRB05KT P6SM SCT015
     FM270900 VRB05KT P6SM OVC012=



000
FTUS46 KSGX 260901 AAA
TAFSAN
TAF AMD
KSAN 260901Z 2609/2712 VRB03KT P6SM OVC015
     FM261800 28007KT P6SM BKN022
     FM262200 29010KT P6SM SCT025
     FM270200 VRB05KT P6SM OVC020=



000
FTUS46 KSGX 260901 AAA
TAFSNA
TAF AMD
KSNA 260901Z 2609/2706 VRB04KT P6SM OVC018
     FM261800 21007KT P6SM BKN022
     FM262200 21009KT P6SM SCT024
     FM270200 VRB04KT P6SM BKN020=



000
FTUS46 KSGX 260520
TAFSAN
TAF
KSAN 260520Z 2606/2712 VRB05KT P6SM OVC020
     FM261900 29009KT P6SM BKN022
     FM262200 29010KT P6SM SCT024
     FM270200 VRB05KT P6SM OVC020=



000
FTUS46 KSGX 260520
TAFPSP
TAF
KPSP 260520Z 2606/2706 33011KT P6SM BKN200
     FM260900 VRB06KT P6SM BKN200
     FM262100 33012KT P6SM SCT200=



000
FTUS46 KSGX 260520
TAFSAN
TAF
KSAN 260520Z 2606/2712 VRB05KT P6SM OVC020
     FM261900 29009KT P6SM BKN022
     FM262200 29010KT P6SM SCT024
     FM270200 VRB05KT P6SM OVC020=



000
FTUS46 KSGX 260520
TAFONT
TAF
KONT 260520Z 2606/2712 VRB04KT 4SM HZ OVC012
     FM261700 VRB06KT P6SM BKN015
     FM262000 25011KT P6SM FEW020
     FM270400 VRB05KT P6SM SCT015
     FM270900 VRB05KT P6SM OVC012=



000
FTUS46 KSGX 260520
TAFSNA
TAF
KSNA 260520Z 2606/2706 VRB04KT P6SM OVC020
     FM262000 21007KT P6SM BKN022
     FM262200 21009KT P6SM SCT024
     FM270200 VRB04KT P6SM BKN020=



000
FTUS46 KSGX 260520
TAFCRQ
TAF
KCRQ 260520Z 2606/2706 VRB04KT P6SM OVC017
     FM262000 25007KT P6SM BKN018
     FM262200 25009KT P6SM SCT021
     FM270200 VRB04KT P6SM BKN017=



000
FTUS46 KSGX 260520
TAFONT
TAF
KONT 260520Z 2606/2712 VRB04KT 4SM HZ OVC012
     FM261700 VRB06KT P6SM BKN015
     FM262000 25011KT P6SM FEW020
     FM270400 VRB05KT P6SM SCT015
     FM270900 VRB05KT P6SM OVC012=



000
FTUS46 KSGX 260520
TAFTRM
TAF
KTRM 260520Z 2606/2706 33010KT P6SM BKN200
     FM261100 VRB06KT P6SM BKN200
     FM261800 14009KT P6SM SCT200
     FM270300 33009KT P6SM SCT200=



000
FTUS46 KSGX 260520
TAFPSP
TAF
KPSP 260520Z 2606/2706 33011KT P6SM BKN200
     FM260900 VRB06KT P6SM BKN200
     FM262100 33012KT P6SM SCT200=



000
FTUS46 KSGX 260520
TAFSNA
TAF
KSNA 260520Z 2606/2706 VRB04KT P6SM OVC020
     FM262000 21007KT P6SM BKN022
     FM262200 21009KT P6SM SCT024
     FM270200 VRB04KT P6SM BKN020=



000
FTUS46 KSGX 260520
TAFTRM
TAF
KTRM 260520Z 2606/2706 33010KT P6SM BKN200
     FM261100 VRB06KT P6SM BKN200
     FM261800 14009KT P6SM SCT200
     FM270300 33009KT P6SM SCT200=



000
FTUS46 KSGX 260520
TAFCRQ
TAF
KCRQ 260520Z 2606/2706 VRB04KT P6SM OVC017
     FM262000 25007KT P6SM BKN018
     FM262200 25009KT P6SM SCT021
     FM270200 VRB04KT P6SM BKN017=



000
FTUS46 KSGX 260440 AAB
TAFPSP
TAF AMD
KPSP 260440Z 2605/2624 33011KT P6SM FEW200
      TEMPO 2605/2606 33012G20KT
     FM260700 VRB05KT P6SM SCT200
     FM262000 33012KT P6SM SCT200=



000
FTUS46 KSGX 260438 AAB
TAFSAN
TAF AMD
KSAN 260438Z 2605/2706 VRB05KT P6SM OVC020
     FM261900 29009KT P6SM BKN022
     FM262200 29010KT P6SM SCT024
     FM270200 VRB05KT P6SM OVC020=



000
FTUS46 KSGX 260435 AAA
TAFSNA
TAF AMD
KSNA 260435Z 2605/2624 VRB04KT P6SM OVC020
     FM262000 21007KT P6SM BKN022
     FM262200 21009KT P6SM SCT024=



000
FTUS46 KSGX 260435 AAA
TAFSNA
TAF AMD
KSNA 260435Z 2605/2624 VRB04KT P6SM OVC020
     FM262000 21007KT P6SM BKN022
     FM262200 21009KT P6SM SCT024=



000
FTUS46 KSGX 260230 AAA
TAFSAN
TAF AMD
KSAN 260230Z 2603/2706 VRB05KT P6SM OVC017
     FM262000 29009KT P6SM BKN020
     FM262200 29010KT P6SM SCT024
     FM270300 VRB05KT P6SM BKN015=



000
FTUS46 KSGX 260230 AAA
TAFSAN
TAF AMD
KSAN 260230Z 2603/2706 VRB05KT P6SM OVC017
     FM262000 29009KT P6SM BKN020
     FM262200 29010KT P6SM SCT024
     FM270300 VRB05KT P6SM BKN015=



000
FTUS46 KSGX 260141 AAA
TAFPSP
TAF AMD
KPSP 260141Z 2602/2624 33011KT P6SM FEW200
     FM260700 VRB05KT P6SM SCT200
     FM262000 33012KT P6SM SCT200=



000
FTUS46 KSGX 260018 AAA
TAFCRQ
TAF AMD
KCRQ 260018Z 2600/2624 26006KT P6SM BKN018
     FM260300 VRB04KT P6SM OVC015
     FM262000 25007KT P6SM BKN018
     FM262200 25009KT P6SM SCT021=



000
FTUS46 KSGX 252320
TAFSNA
TAF
KSNA 252320Z 2600/2624 22007KT P6SM BKN022
     FM260100 VRB05KT P6SM BKN020
     FM260400 VRB04KT P6SM OVC015
     FM262000 21007KT P6SM BKN020
     FM262200 21009KT P6SM SCT024=



000
FTUS46 KSGX 252320
TAFPSP
TAF
KPSP 252320Z 2600/2624 33014G23KT P6SM FEW200
     FM260300 33011KT P6SM FEW200
     FM260700 VRB05KT P6SM SCT200
     FM262000 33012KT P6SM SCT200=



000
FTUS46 KSGX 252320
TAFSAN
TAF
KSAN 252320Z 2600/2706 29007KT P6SM BKN020
     FM260300 VRB04KT P6SM OVC015
     FM262000 29009KT P6SM BKN020
     FM262200 29010KT P6SM SCT024
     FM270300 VRB05KT P6SM BKN015=



000
FTUS46 KSGX 252320
TAFCRQ
TAF
KCRQ 252320Z 2600/2624 26006KT P6SM BKN018
      TEMPO 2601/2603 SCT020
     FM260300 VRB04KT P6SM OVC015
     FM262000 25007KT P6SM BKN018
     FM262200 25009KT P6SM SCT021=



000
FTUS46 KSGX 252320
TAFONT
TAF
KONT 252320Z 2600/2706 25009KT P6SM FEW025
     FM260400 24004KT P6SM SCT015
     FM260800 VRB04KT 4SM HZ OVC010
     FM261700 VRB06KT P6SM BKN015
     FM262100 25011KT P6SM FEW020
     FM270400 VRB05KT P6SM SCT015=



000
FTUS46 KSGX 252320
TAFTRM
TAF
KTRM 252320Z 2600/2624 14009KT P6SM FEW200
     FM260300 33010KT P6SM FEW200
     FM261000 VRB06KT P6SM SCT200
     FM261800 14009KT P6SM SCT200=



000
FTUS46 KSGX 252011 AAA
TAFSAN
TAF AMD
KSAN 252011Z 2520/2624 30009KT P6SM BKN017
     FM252300 30009KT P6SM BKN022
     FM260200 VRB04KT P6SM OVC020
     FM260400 VRB04KT P6SM OVC015
     FM262000 29010KT P6SM BKN020=



000
FTUS46 KSGX 251736
TAFCRQ
TAF
KCRQ 251736Z 2518/2618 VRB06KT P6SM OVC015
     FM252000 24008KT P6SM BKN015
     FM260000 VRB04KT P6SM BKN020
     FM260200 VRB04KT P6SM OVC015=



000
FTUS46 KSGX 251736
TAFTRM
TAF
KTRM 251736Z 2518/2618 VRB06KT P6SM SKC
     FM252000 14011KT P6SM SKC
     FM260300 33009KT P6SM SCT200
     FM261400 VRB06KT P6SM SCT200=



000
FTUS46 KSGX 251736
TAFSNA
TAF
KSNA 251736Z 2518/2618 22006KT P6SM OVC018
     FM252100 22007KT P6SM BKN022
     FM260100 VRB05KT P6SM BKN020
     FM260400 VRB04KT P6SM OVC015=



000
FTUS46 KSGX 251736
TAFPSP
TAF
KPSP 251736Z 2518/2618 VRB06KT P6SM SKC
     FM252000 08009KT P6SM SKC
     FM252300 33012KT P6SM FEW200
     FM260700 VRB06KT P6SM SCT200=



000
FTUS46 KSGX 251736
TAFONT
TAF
KONT 251736Z 2518/2624 VRB06KT 4SM HZ BKN017
     FM252100 25011KT P6SM SCT017
      TEMPO 2522/2524 25011G18KT
     FM260500 24005KT 4SM HZ BKN010
     FM261100 VRB05KT 4SM HZ OVC010
     FM262100 25011KT P6SM SCT015=



000
FTUS46 KSGX 251736
TAFSAN
TAF
KSAN 251736Z 2518/2624 29007KT P6SM -DZ OVC015
     FM252000 30009KT P6SM BKN017
     FM252300 30009KT P6SM BKN022
     FM260200 VRB04KT P6SM OVC020
     FM260400 VRB04KT P6SM OVC015
     FM262000 29010KT P6SM BKN020=



000
FTUS46 KSGX 251430 AAA
TAFSNA
TAF AMD
KSNA 251430Z 2515/2612 VRB05KT P6SM OVC020
     FM251800 22009KT P6SM FEW025
     FM260200 VRB04KT P6SM SCT020
     FM260400 VRB04KT P6SM OVC015=



000
FTUS46 KSGX 251428 AAA
TAFCRQ
TAF AMD
KCRQ 251428Z 2514/2612 VRB06KT P6SM OVC020
     FM251900 24008KT P6SM SCT022
     FM260100 VRB04KT P6SM SCT020
      TEMPO 2602/2604 BKN015
     FM260400 VRB04KT P6SM OVC015=



    US Dept of Commerce
    National Oceanic and Atmospheric Administration
    National Weather Service
    1325 East West Highway
    Silver Spring, MD 20910
    Page Author: NWS Internet Services Team
Disclaimer
Information Quality
Credits
Glossary
Privacy Policy
Freedom of Information Act (FOIA)
About Us
Career Opportunities